Pioche, Nevada Weather observations

Data are for observation ending at time listed.
 Day   Time    Ave.   Ave.  Ave.  Vector   Max.   Stn.    Total    Solar   Ave.  
  of    of     Air    Rel.  Wind   Wind    Wind   Baro.  Precip.   Rad.    Soil  
Year   Day     Temp.  Hum.  Speed  Dir.    Gust   Pres.                    Temp. 
2015   (PST)    F      %     mph   deg.    mph     mb.     in.     W/m2     F   
------------------------------------------------------------------------------
 185   12:00   78.9    29    4.9   202     11.1   821.9    0.00     254    78.7
 185   12:10   78.1    31    4.9   219     11.8   821.8    0.00     333    78.8
 185   12:20   78.5    30    6.5   267     17.5   821.7    0.00     534    78.8
 185   12:30   78.0    32    7.5   269     13.8   821.7    0.00     644    78.8
 185   12:40   79.2    31    3.7   223      8.8   821.6    0.00     538    78.9
 185   12:50   79.6    29    3.2   164     18.0   821.6    0.00     418    78.9
 185   13:00   78.9    28    7.3   150     15.9   821.6    0.00     402    78.9
 185   13:10   77.6    29   10.8   139     16.6   821.6    0.00     336    79.0
 185   13:20   77.2    30    9.7   137     15.5   821.5    0.00     301    79.0
 185   13:30   77.2    31    6.4   155     12.1   821.5    0.00     220    79.0
 185   13:40   77.1    31    5.1   159      9.8   821.5    0.00     184    79.1
 185   13:50   76.7    32    5.7   182     11.1   821.4    0.00     185    79.1
 185   14:00   76.5    32    5.1   180     10.9   821.3    0.00     204    79.1
 185   14:10   76.2    34    5.1   170      9.2   821.3    0.00     210    79.1
 185   14:20   75.5    35    4.5   131      8.8   821.3    0.00     197    79.2
 185   14:30   75.7    35    4.7   108      7.7   821.2    0.00     240    79.2
 185   14:40   75.9    34    3.4    91      7.1   821.1    0.00     350    79.2
 185   14:50   76.7    34    3.4   122      8.0   821.0    0.00     464    79.3
 185   15:00   77.1    33    4.6   151      9.6   821.0    0.00     419    79.3
 185   15:10   76.7    34    4.9   135     10.4   820.9    0.00     433    79.3
 185   15:20   76.6    34    6.3   109     10.7   820.8    0.00     367    79.3
 185   15:30   76.9    34    4.9   137      9.1   820.7    0.00     333    79.4
 185   15:40   77.0    34    4.8   144      8.3   820.6    0.00     345    79.4
 185   15:50   77.3    34    4.7   145     10.0   820.5    0.00     546    79.4
 185   16:00   77.7    33    5.7   140     11.3   820.4    0.00     547    79.4
 185   16:10   77.3    34    5.3   145     11.4   820.3    0.00     333    79.4
 185   16:20   77.5    33    4.5   121      9.6   820.1    0.00     473    79.5
 185   16:30   78.5    32    5.5   144     11.5   819.9    0.00     465    79.5
 185   16:40   78.5    31    6.9   130     11.2   819.8    0.00     408    79.5
 185   16:50   78.4    32    6.0   131     12.6   819.7    0.00     346    79.5
 185   17:00   78.4    32    4.9   144     12.1   819.7    0.00     318    79.6
 185   17:10   78.3    33    5.5   143     10.1   819.7    0.00     214    79.6
 185   17:20   77.4    34    6.3   132     12.3   819.7    0.00     108    79.6
 185   17:30   76.8    34    5.3   140     15.9   819.8    0.00      81    79.7
 185   17:40   76.6    34    2.8   190      7.1   819.9    0.00      65    79.7
 185   17:50   76.3    34    1.9   208      5.1   819.9    0.00      57    79.8
 185   18:00   75.9    34    3.0   199      7.0   820.0    0.00      50    79.8
 185   18:10   75.8    34    2.7   202      5.5   820.1    0.00      42    79.8
 185   18:20   75.7    34    2.8   189      5.8   820.1    0.00      27    79.8
 185   18:30   75.9    33    2.9   172      4.8   820.2    0.00      23    79.9
 185   18:40   76.0    34    2.2   135      3.5   820.2    0.00      29    79.9
 185   18:50   75.6    38    1.1   113      2.5   820.2    0.00      12    79.9
 185   19:00   74.9    39    1.9   115      3.3   820.2    0.00       8    79.9
 185   19:10   74.8    38    1.8   142      2.8   820.2    0.00       6    80.0
 185   19:20   74.4    38    1.5   168      2.5   820.2    0.00       0    80.0
 185   19:30   74.0    39    1.6   161      2.5   820.2    0.00       0    80.0
 185   19:40   74.0    38    1.9   176      3.2   820.3    0.00       0    80.0
 185   19:50   73.6    38    2.5   201      3.9   820.4    0.00       0    80.0
 185   20:00   73.4    39    2.2   187      3.4   820.5    0.00       0    80.0
 185   20:10   73.6    38    2.4   187      3.9   820.6    0.00       0    80.0
 185   20:20   74.2    37    2.4   177      3.9   820.7    0.00       0    80.0
 185   20:30   74.1    38    2.1   189      3.6   820.8    0.00       0    80.0
 185   20:40   73.5    40    1.9   212      3.9   820.9    0.00       0    80.0
 185   20:50   73.5    39    2.1   194      4.3   820.9    0.00       0    79.9
 185   21:00   73.8    39    1.6   213      4.5   820.9    0.00       0    79.9
 185   21:10   73.3    41    1.8   197      3.1   820.9    0.00       0    79.9
 185   21:20   73.5    38    2.3   186      5.3   820.9    0.00       0    79.9
 185   21:30   74.0    36    3.1   191      4.7   820.9    0.00       0    79.8
 185   21:40   73.9    35    3.1   180      6.4   821.0    0.00       0    79.8
 185   21:50   73.8    37    2.1   200      4.1   821.0    0.00       0    79.8
 185   22:00   72.5    39    1.5   240      5.6   821.0    0.00       0    79.7
 185   22:10   71.2    42    0.6   226      2.5   821.0    0.00       0    79.7
 185   22:20   70.6    41    1.7   203      2.7   821.0    0.00       0    79.7
 185   22:30   70.8    41    2.0   210      3.4   821.0    0.00       0    79.7
 185   22:40   70.5    42    1.3   220      3.1   821.0    0.00       0    79.6
 185   22:50   70.2    42    1.4   229      5.2   821.0    0.00       0    79.6
 185   23:00   71.1    40    1.7   240      4.5   821.0    0.00       0    79.5
 185   23:10   70.6    42    0.9   229      2.9   821.0    0.00       0    79.5
 185   23:20   69.9    43    2.5   217      4.7   820.9    0.00       0    79.4
 185   23:30   69.3    44    2.0   218      5.2   820.9    0.00       0    79.4
 185   23:40   69.2    43    2.3   217      4.2   820.9    0.00       0    79.4
 185   23:50   69.4    42    3.4   205      5.4   820.8    0.00       0    79.3
 186    0:00   69.7    41    3.7   205      5.4   820.8    0.00       0    79.3
 186    0:10   69.7    41    3.7   205      5.8   820.8    0.00       0    79.2
 186    0:20   69.4    42    2.3   214      4.8   820.7    0.00       0    79.2
 186    0:30   69.0    42    2.1   210      4.5   820.6    0.00       0    79.2
 186    0:40   68.8    42    1.5   227      4.2   820.6    0.00       0    79.1
 186    0:50   68.8    41    1.5   216      3.4   820.7    0.00       0    79.1
 186    1:00   68.5    44    1.4   107      3.4   820.6    0.00       0    79.0
 186    1:10   66.0    54    3.3    84      4.7   820.7    0.00       0    79.0
 186    1:20   65.4    55    3.5    91      5.2   820.7    0.00       0    78.9
 186    1:30   64.4    58    1.4    83      2.5   820.7    0.00       0    78.9
 186    1:40   63.3    61    0.6   278      2.0   820.8    0.00       0    78.9
 186    1:50   62.1    63    1.7   189      2.6   820.8    0.00       0    78.8
 186    2:00   62.6    61    1.3   160      2.9   820.8    0.00       0    78.7
 186    2:10   62.3    61    1.1   212      2.3   820.8    0.00       0    78.7
 186    2:20   62.3    60    1.2   157      2.6   820.9    0.00       0    78.6
 186    2:30   62.7    58    2.9   150      4.1   820.9    0.00       0    78.5
 186    2:40   63.1    57    3.3   154      5.2   821.0    0.00       0    78.5
 186    2:50   62.8    57    3.8   150      4.6   820.9    0.00       0    78.4
 186    3:00   62.5    57    3.7   149      4.7   820.9    0.00       0    78.4
 186    3:10   62.7    57    1.4   153      2.8   821.0    0.00       0    78.3
 186    3:20   62.2    58    2.4   153      3.9   821.1    0.00       0    78.3
 186    3:30   61.7    58    1.5   147      4.0   821.1    0.00       0    78.2
 186    3:40   62.4    57    1.2   129      2.9   821.2    0.00       0    78.1
 186    3:50   62.2    57    1.9   156      4.4   821.2    0.00       0    78.1
 186    4:00   61.1    58    3.1   148      4.8   821.2    0.00       0    78.0
 186    4:10   61.2    58    1.4   133      3.4   821.3    0.00       0    78.0
 186    4:20   60.7    59    1.1   164      3.1   821.4    0.00       1    77.9
 186    4:30   60.8    60    0.7   185      2.7   821.4    0.00       4    77.8
 186    4:40   60.4    61    1.2   212      2.9   821.5    0.00      10    77.8
 186    4:50   60.5    62    1.4   154      3.3   821.5    0.00      12    77.7
 186    5:00   61.5    59    1.5   151      2.7   821.5    0.00      15    77.6
 186    5:10   62.2    58    0.8   156      2.1   821.6    0.00      17    77.6
 186    5:20   63.3    56    0.9   139      2.6   821.7    0.00      21    77.5
 186    5:30   63.7    58    0.4   315      1.6   821.8    0.00      23    77.4
 186    5:40   63.5    60    1.2   309      2.1   822.0    0.00      26    77.4
 186    5:50   64.0    58    0.1    90      1.1   822.0    0.00      29    77.3
 186    6:00   64.8    56    0.2    32      1.5   822.0    0.00      68    77.2
 186    6:10   66.1    53    0.7    68      3.1   822.1    0.00     299    77.2
 186    6:20   68.1    50    0.8    66      2.9   822.2    0.00     367    77.1
 186    6:30   70.5    46    0.4    64      2.4   822.2    0.00     428    77.1
 186    6:40   71.5    44    1.0    76      2.4   822.2    0.00     289    77.0
 186    6:50   71.8    43    0.5   350      2.9   822.3    0.00     411    77.0
 186    7:00   73.4    40    1.4   316      3.4   822.4    0.00     539    76.9
 186    7:10   73.1    40    0.4   296      2.0   822.4    0.00     263    76.9
 186    7:20   72.9    40    0.5   331      2.4   822.5    0.00     253    76.8
 186    7:30   72.1    41    1.3    71      3.2   822.5    0.00     334    76.8
 186    7:40   74.1    38    0.7   319      2.6   822.5    0.00     456    76.7
 186    7:50   75.5    36    0.0   289      0.7   822.5    0.00     342    76.7
 186    8:00   75.7    36    0.6   315      2.3   822.5    0.00     431    76.6
 186    8:10   77.9    34    0.2    79      2.5   822.5    0.00     632    76.6
 186    8:20   79.0    32    0.7    50      4.1   822.5    0.00     906    76.6
 186    8:30   78.7    32    2.1    82      6.5   822.4    0.00     657    76.6
 186    8:40   77.7    34    3.3    83      6.6   822.4    0.00     416    76.6
 186    8:50   77.4    32    1.8   141      7.5   822.4    0.00     311    76.6
 186    9:00   77.1    32    5.6   148     11.9   822.4    0.00     313    76.6
 186    9:10   76.6    32    7.2   144     13.4   822.4    0.00     335    76.6
 186    9:20   76.1    32    8.6   139     13.7   822.5    0.00     391    76.6
 186    9:30   76.5    32    7.7   145     11.5   822.6    0.00     494    76.6
 186    9:40   76.6    32    7.7   136     11.2   822.6    0.00     454    76.6
 186    9:50   76.5    31    6.7   134      9.9   822.7    0.00     439    76.6
 186   10:00   76.7    31    6.4   129     10.0   822.7    0.00     346    76.6
 186   10:10   76.6    31    5.9   134     10.2   822.7    0.00     351    76.7
 186   10:20   76.6    31    7.7   138     11.0   822.7    0.00     437    76.7
 186   10:30   76.9    31    7.5   138     12.0   822.7    0.00     570    76.7
 186   10:40   77.7    30    7.4   131     11.9   822.6    0.00     849    76.8
 186   10:50   77.9    30    7.5   131     13.0   822.5    0.00     649    76.8
 186   11:00   79.0    29    3.9   122     13.2   822.5    0.00     646    76.9
 186   11:10   80.9    27    3.1   140      8.7   822.4    0.00     821    76.9
 186   11:20   80.7    26    3.8   122      9.9   822.3    0.00     971    76.9
 186   11:30   81.6    26    2.8   306      9.6   822.2    0.00     849    77.0
 186   11:40   83.1    22    2.5   276     10.2   822.1    0.00    1135    77.0
 186   11:50   84.4    21    6.6   290     14.0   821.9    0.00    1110    77.1

Return to Pioche, Nevada graphs page.


Western Regional Climate Center,wrcc@dri.edu